createdAt,value
2017-07-04T00:00:58.801Z,2.63
2017-07-04T00:03:26.348Z,3.13
2017-07-04T00:05:53.830Z,3.23
2017-07-04T00:08:22.099Z,3.40
2017-07-04T00:10:49.644Z,2.83
2017-07-04T00:13:17.229Z,3.23
2017-07-04T00:15:45.485Z,3.40
2017-07-04T00:18:12.949Z,3.77
2017-07-04T00:20:40.475Z,3.27
2017-07-04T00:23:07.961Z,2.80
2017-07-04T00:25:35.518Z,3.30
2017-07-04T00:28:03.078Z,3.10
2017-07-04T00:30:30.641Z,3.77
2017-07-04T00:32:58.091Z,2.90
2017-07-04T00:35:25.649Z,3.30
2017-07-04T00:37:53.197Z,3.20
2017-07-04T00:40:21.493Z,3.97
2017-07-04T00:42:48.950Z,3.07
2017-07-04T00:45:17.219Z,3.27
2017-07-04T00:47:44.765Z,3.60
2017-07-04T00:50:12.220Z,3.50
2017-07-04T00:52:39.688Z,3.30
2017-07-04T00:55:07.146Z,2.93
2017-07-04T00:57:34.711Z,3.10
2017-07-04T01:00:02.250Z,3.60
2017-07-04T01:02:29.826Z,3.60
2017-07-04T01:04:57.386Z,4.17
2017-07-04T01:07:25.655Z,4.70
2017-07-04T01:09:53.194Z,4.27
2017-07-04T01:12:20.676Z,3.97
2017-07-04T01:14:48.217Z,4.43
2017-07-04T01:17:15.677Z,4.47
2017-07-04T01:19:43.241Z,5.03
2017-07-04T01:22:10.706Z,4.77
2017-07-04T01:24:38.928Z,3.70
2017-07-04T01:27:06.403Z,4.60
2017-07-04T01:29:33.876Z,4.70
2017-07-04T01:32:01.330Z,4.57
2017-07-04T01:34:28.900Z,4.43
2017-07-04T01:36:56.361Z,4.67
2017-07-04T01:39:23.927Z,4.70
2017-07-04T01:41:52.181Z,4.80
2017-07-04T01:44:19.641Z,4.90
2017-07-04T01:46:47.210Z,4.60
2017-07-04T01:49:14.816Z,5.23
2017-07-04T01:51:43.052Z,5.70
2017-07-04T01:54:11.280Z,4.70
2017-07-04T01:56:38.738Z,4.83
2017-07-04T01:59:06.370Z,5.17
2017-07-04T02:01:33.901Z,5.23
2017-07-04T02:04:02.173Z,5.03
2017-07-04T02:06:29.657Z,4.70
2017-07-04T02:08:57.117Z,5.30
2017-07-04T02:11:24.638Z,4.83
2017-07-04T02:13:52.201Z,5.00
2017-07-04T02:16:20.482Z,6.00
2017-07-04T02:18:48.746Z,4.73
2017-07-04T02:21:16.360Z,4.83
2017-07-04T02:23:43.878Z,5.57
2017-07-04T02:26:12.121Z,5.13
2017-07-04T02:28:39.606Z,5.60
2017-07-04T02:31:07.877Z,5.30
2017-07-04T02:33:35.350Z,5.43
2017-07-04T02:36:03.577Z,5.80
2017-07-04T02:38:31.075Z,5.07
2017-07-04T02:40:59.324Z,5.60
2017-07-04T02:43:26.828Z,5.40
2017-07-04T02:45:54.289Z,5.33
2017-07-04T02:48:21.759Z,5.20
2017-07-04T02:50:49.274Z,5.83
2017-07-04T02:53:17.654Z,5.43
2017-07-04T02:55:45.912Z,5.80
2017-07-04T02:58:13.465Z,5.73
2017-07-04T03:00:40.942Z,5.27
2017-07-04T03:03:09.181Z,5.97
2017-07-04T03:05:36.679Z,6.20
2017-07-04T03:08:05.046Z,6.03
2017-07-04T03:10:32.597Z,6.23
2017-07-04T03:13:00.053Z,6.50
2017-07-04T03:15:27.619Z,6.33
2017-07-04T03:17:55.410Z,6.50
2017-07-04T03:20:22.886Z,5.37
2017-07-04T03:22:50.354Z,5.47
2017-07-04T03:25:17.846Z,5.83
2017-07-04T03:27:45.415Z,5.37
2017-07-04T03:30:12.974Z,6.10
2017-07-04T03:32:40.523Z,6.03
2017-07-04T03:35:08.092Z,6.10
2017-07-04T03:37:36.334Z,7.17
2017-07-04T03:40:03.826Z,5.80
2017-07-04T03:42:32.093Z,6.60
2017-07-04T03:44:59.553Z,5.67
2017-07-04T03:47:27.024Z,6.63
2017-07-04T03:49:55.282Z,6.93
2017-07-04T03:52:22.768Z,6.43
2017-07-04T03:54:50.222Z,6.30
2017-07-04T03:57:17.697Z,6.27
2017-07-04T03:59:45.154Z,5.90
2017-07-04T04:02:12.633Z,6.77
2017-07-04T04:04:40.176Z,6.80
2017-07-04T04:07:07.685Z,7.87
2017-07-04T04:09:35.929Z,7.00
2017-07-04T04:12:03.417Z,6.80
2017-07-04T04:14:30.973Z,6.90
2017-07-04T04:16:58.433Z,7.03
2017-07-04T04:19:26.677Z,7.33
2017-07-04T04:21:54.137Z,7.97
2017-07-04T04:24:21.613Z,7.40
2017-07-04T04:26:49.082Z,7.37
2017-07-04T04:29:17.313Z,7.00
2017-07-04T04:31:44.800Z,7.40
2017-07-04T04:34:12.290Z,7.50
2017-07-04T04:36:39.770Z,6.77
2017-07-04T04:39:07.229Z,7.80
2017-07-04T04:41:34.732Z,6.83
2017-07-04T04:44:02.287Z,7.30
2017-07-04T04:46:29.842Z,6.60
2017-07-04T04:48:57.402Z,6.70
2017-07-04T04:51:24.869Z,6.17
2017-07-04T04:53:53.129Z,6.47
2017-07-04T04:56:20.685Z,7.13
2017-07-04T04:58:48.255Z,6.40
2017-07-04T05:01:15.818Z,6.97
2017-07-04T05:03:43.282Z,6.00
2017-07-04T05:06:11.555Z,6.30
2017-07-04T05:08:39.778Z,5.33
2017-07-04T05:11:07.246Z,5.57
2017-07-04T05:13:34.723Z,6.10
2017-07-04T05:16:02.203Z,5.60
2017-07-04T05:18:30.061Z,6.57
2017-07-04T05:20:58.253Z,6.43
2017-07-04T05:23:26.732Z,5.80
2017-07-04T05:25:55.043Z,6.23
2017-07-04T05:28:22.540Z,5.90
2017-07-04T05:30:50.104Z,6.27
2017-07-04T05:33:17.773Z,5.50
2017-07-04T05:35:46.007Z,5.50
2017-07-04T05:38:13.477Z,5.20
2017-07-04T05:40:40.931Z,6.57
2017-07-04T05:43:08.418Z,4.80
2017-07-04T05:45:36.698Z,5.47
2017-07-04T05:48:04.940Z,5.43
2017-07-04T05:50:32.427Z,6.23
2017-07-04T05:53:00.661Z,6.27
2017-07-04T05:55:28.149Z,4.73
2017-07-04T05:57:55.714Z,5.60
2017-07-04T06:00:24.038Z,5.10
2017-07-04T06:02:51.528Z,5.70
2017-07-04T06:05:19.100Z,4.93
2017-07-04T06:07:46.557Z,4.50
2017-07-04T06:10:14.159Z,4.23
2017-07-04T06:12:41.709Z,4.87
2017-07-04T06:15:09.230Z,4.77
2017-07-04T06:17:36.693Z,4.33
2017-07-04T06:20:04.179Z,4.97
2017-07-04T06:22:31.696Z,3.80
2017-07-04T06:24:59.266Z,4.03
2017-07-04T06:27:26.821Z,3.97
2017-07-04T06:29:54.311Z,3.60
2017-07-04T06:32:21.794Z,3.00
2017-07-04T06:34:49.294Z,3.40
2017-07-04T06:37:16.844Z,3.30
2017-07-04T06:39:44.413Z,3.97
2017-07-04T06:42:11.956Z,3.30
2017-07-04T06:44:39.533Z,3.47
2017-07-04T06:47:07.777Z,3.00
2017-07-04T06:49:35.244Z,3.23
2017-07-04T06:52:02.713Z,2.77
2017-07-04T06:54:30.279Z,3.57
2017-07-04T06:56:57.742Z,3.07
2017-07-04T06:59:26.010Z,3.00
2017-07-04T07:01:53.482Z,2.60
2017-07-04T07:04:21.713Z,3.03
2017-07-04T07:06:49.188Z,3.17
2017-07-04T07:09:16.759Z,3.43
2017-07-04T07:11:45.024Z,2.90
2017-07-04T07:14:12.613Z,2.60
2017-07-04T07:16:40.098Z,2.87
2017-07-04T07:19:07.549Z,2.40
2017-07-04T07:21:35.064Z,2.70
2017-07-04T07:24:02.624Z,2.33
2017-07-04T07:26:30.893Z,2.63
2017-07-04T07:28:58.359Z,2.60
2017-07-04T07:31:26.621Z,2.70
2017-07-04T07:33:54.501Z,2.53
2017-07-04T07:36:22.772Z,2.80
2017-07-04T07:38:50.349Z,2.63
2017-07-04T07:41:17.880Z,2.60
2017-07-04T07:43:45.360Z,2.33
2017-07-04T07:46:13.620Z,2.53
2017-07-04T07:48:41.176Z,2.23
2017-07-04T07:51:08.746Z,2.30
2017-07-04T07:53:37.012Z,2.50
2017-07-04T07:56:04.566Z,2.60
2017-07-04T07:58:32.117Z,2.30
2017-07-04T08:00:59.589Z,1.90
2017-07-04T08:03:27.137Z,2.20
2017-07-04T08:05:54.598Z,1.60
2017-07-04T08:08:22.153Z,1.73
2017-07-04T08:10:49.712Z,1.73
2017-07-04T08:13:17.261Z,2.13
2017-07-04T08:15:44.831Z,1.80
2017-07-04T08:18:12.394Z,1.63
2017-07-04T08:20:39.955Z,1.53
2017-07-04T08:23:07.506Z,1.97
2017-07-04T08:25:34.958Z,1.33
2017-07-04T08:28:02.521Z,2.00
2017-07-04T08:30:30.081Z,2.03
2017-07-04T08:32:57.642Z,1.50
2017-07-04T08:35:25.208Z,1.60
2017-07-04T08:37:53.491Z,1.73
2017-07-04T08:40:21.726Z,1.90
2017-07-04T08:42:49.186Z,1.87
2017-07-04T08:45:16.670Z,1.80
2017-07-04T08:47:44.121Z,1.77
2017-07-04T08:50:11.652Z,1.33
2017-07-04T08:52:39.122Z,1.57
2017-07-04T08:55:06.667Z,1.53
2017-07-04T08:57:34.138Z,1.83
2017-07-04T09:00:01.657Z,1.40
2017-07-04T09:02:29.170Z,2.07
2017-07-04T09:04:56.717Z,1.87
2017-07-04T09:07:24.278Z,1.70
2017-07-04T09:09:51.838Z,2.00
2017-07-04T09:12:19.311Z,1.47
2017-07-04T09:14:47.574Z,1.33
2017-07-04T09:17:15.139Z,1.37
2017-07-04T09:19:42.689Z,1.43
2017-07-04T09:22:10.241Z,1.43
2017-07-04T09:24:37.807Z,1.03
2017-07-04T09:27:05.351Z,1.20
2017-07-04T09:29:32.809Z,1.10
2017-07-04T09:32:00.272Z,0.83
2017-07-04T09:34:27.730Z,1.43
2017-07-04T09:36:55.181Z,1.23
2017-07-04T09:39:22.756Z,1.17
2017-07-04T09:41:50.199Z,1.57
2017-07-04T09:44:17.821Z,0.90
2017-07-04T09:46:45.322Z,1.13
2017-07-04T09:49:12.876Z,1.07
2017-07-04T09:51:40.338Z,1.30
2017-07-04T09:54:07.805Z,1.10
2017-07-04T09:56:35.256Z,1.40
2017-07-04T09:59:02.783Z,1.30
2017-07-04T10:01:30.265Z,1.27
2017-07-04T10:03:57.817Z,1.10
2017-07-04T10:06:25.291Z,1.13
2017-07-04T10:08:52.758Z,1.40
2017-07-04T10:11:21.112Z,1.10
2017-07-04T10:13:48.568Z,1.20
2017-07-04T10:16:16.035Z,1.33
2017-07-04T10:18:43.642Z,1.13
2017-07-04T10:21:11.053Z,1.00
2017-07-04T10:23:39.274Z,1.10
2017-07-04T10:26:06.755Z,1.00
2017-07-04T10:28:34.263Z,1.13
2017-07-04T10:31:01.720Z,0.90
2017-07-04T10:33:29.187Z,1.37
2017-07-04T10:35:56.970Z,1.17
2017-07-04T10:38:24.474Z,0.90
2017-07-04T10:40:52.025Z,1.10
2017-07-04T10:43:21.028Z,1.23
2017-07-04T10:45:48.485Z,1.40
2017-07-04T10:48:16.713Z,1.10
2017-07-04T10:50:44.207Z,1.00
2017-07-04T10:53:11.770Z,1.83
2017-07-04T10:55:39.318Z,1.23
2017-07-04T10:58:06.889Z,0.97
2017-07-04T11:00:34.350Z,1.20
2017-07-04T11:03:02.625Z,1.27
2017-07-04T11:05:30.889Z,0.90
2017-07-04T11:07:58.456Z,1.73
2017-07-04T11:10:26.058Z,1.00
2017-07-04T11:12:53.579Z,1.10
2017-07-04T11:15:21.799Z,1.10
2017-07-04T11:17:49.303Z,1.10
2017-07-04T11:20:16.854Z,1.30
2017-07-04T11:22:44.310Z,1.30
2017-07-04T11:25:11.770Z,1.10
2017-07-04T11:27:39.325Z,0.97
2017-07-04T11:30:06.781Z,1.37
2017-07-04T11:32:34.244Z,1.70
2017-07-04T11:35:01.798Z,0.90
2017-07-04T11:37:29.345Z,1.10
2017-07-04T11:39:56.801Z,1.00
2017-07-04T11:42:24.328Z,0.93
2017-07-04T11:44:51.827Z,0.97
2017-07-04T11:47:19.271Z,2.00
2017-07-04T11:49:46.841Z,1.40
2017-07-04T11:52:14.302Z,1.00
2017-07-04T11:54:41.866Z,1.20
2017-07-04T11:57:09.427Z,1.30
2017-07-04T11:59:36.878Z,1.70
2017-07-04T12:02:04.336Z,1.20
2017-07-04T12:04:31.803Z,0.90
2017-07-04T12:07:00.066Z,1.00
2017-07-04T12:09:27.613Z,1.50
2017-07-04T12:11:55.168Z,1.30
2017-07-04T12:14:22.620Z,1.13
2017-07-04T12:16:50.089Z,1.20
2017-07-04T12:19:17.550Z,0.93
2017-07-04T12:21:45.096Z,1.20
2017-07-04T12:24:12.669Z,1.10
2017-07-04T12:26:40.230Z,1.30
2017-07-04T12:29:07.679Z,1.10
2017-07-04T12:31:35.254Z,1.00
2017-07-04T12:34:03.821Z,1.07
2017-07-04T12:36:31.515Z,0.90
2017-07-04T12:38:59.749Z,1.63
2017-07-04T12:41:27.195Z,1.20
2017-07-04T12:43:54.683Z,1.00
2017-07-04T12:46:22.233Z,1.10
2017-07-04T12:48:49.694Z,1.20
2017-07-04T12:51:17.239Z,0.80
2017-07-04T12:53:44.708Z,1.00
2017-07-04T12:56:12.170Z,1.20
2017-07-04T12:58:40.424Z,0.97
2017-07-04T13:01:07.989Z,0.97
2017-07-04T13:03:35.536Z,1.10
2017-07-04T13:06:02.980Z,1.20
2017-07-04T13:08:30.452Z,1.00
2017-07-04T13:10:58.030Z,0.90
2017-07-04T13:13:25.577Z,0.97
2017-07-04T13:15:53.137Z,0.90
2017-07-04T13:18:20.585Z,1.20
2017-07-04T13:20:48.050Z,1.43
2017-07-04T13:23:15.514Z,1.00
2017-07-04T13:25:43.126Z,1.00
2017-07-04T13:28:10.638Z,1.27
2017-07-04T13:30:38.101Z,0.90
2017-07-04T13:33:06.326Z,0.93
2017-07-04T13:35:33.784Z,1.33
2017-07-04T13:38:01.283Z,1.20
2017-07-04T13:40:29.547Z,1.20
2017-07-04T13:42:57.107Z,0.73
2017-07-04T13:45:24.571Z,1.00
2017-07-04T13:47:52.132Z,1.30
2017-07-04T13:50:19.684Z,1.20
2017-07-04T13:52:47.233Z,1.10
2017-07-04T13:55:14.701Z,1.00
2017-07-04T13:57:42.244Z,0.97
2017-07-04T14:00:09.700Z,1.60
2017-07-04T14:02:37.241Z,0.80
2017-07-04T14:05:04.724Z,1.33
2017-07-04T14:07:32.276Z,1.10
2017-07-04T14:09:59.837Z,1.37
2017-07-04T14:12:27.397Z,0.90
2017-07-04T14:14:54.948Z,1.27
2017-07-04T14:17:22.575Z,1.37
2017-07-04T14:19:50.079Z,1.20
2017-07-04T14:22:17.633Z,0.90
2017-07-04T14:24:45.198Z,1.20
2017-07-04T14:27:12.762Z,1.37
2017-07-04T14:29:42.655Z,1.00
2017-07-04T14:32:10.131Z,1.27
2017-07-04T14:34:37.593Z,1.00
2017-07-04T14:37:05.849Z,1.10
2017-07-04T14:39:33.431Z,0.77
2017-07-04T14:42:01.689Z,1.30
2017-07-04T14:44:29.149Z,1.00
2017-07-04T14:46:56.707Z,1.57
2017-07-04T14:49:24.258Z,1.23
2017-07-04T14:51:51.727Z,0.90
2017-07-04T14:54:19.184Z,1.10
2017-07-04T14:56:46.661Z,1.07
2017-07-04T14:59:14.896Z,1.10
2017-07-04T15:01:42.358Z,1.10
2017-07-04T15:04:09.912Z,1.43
2017-07-04T15:06:37.482Z,1.40
2017-07-04T15:09:04.929Z,0.90
2017-07-04T15:11:32.488Z,1.13
2017-07-04T15:13:59.946Z,0.90
2017-07-04T15:16:27.406Z,1.20
2017-07-04T15:18:54.976Z,1.10
2017-07-04T15:21:22.442Z,1.03
2017-07-04T15:23:50.665Z,0.83
2017-07-04T15:26:18.146Z,0.80
2017-07-04T15:28:45.613Z,1.63
2017-07-04T15:31:13.114Z,1.00
2017-07-04T15:33:40.567Z,1.20
2017-07-04T15:36:08.091Z,1.10
2017-07-04T15:38:35.554Z,1.00
2017-07-04T15:41:03.819Z,1.13
2017-07-04T15:43:31.295Z,1.03
2017-07-04T15:45:59.537Z,1.00
2017-07-04T15:48:27.001Z,0.87
2017-07-04T15:50:54.454Z,0.87
2017-07-04T15:53:21.916Z,0.90
2017-07-04T15:55:49.487Z,0.90
2017-07-04T15:58:17.039Z,1.03
2017-07-04T16:00:44.592Z,1.50
2017-07-04T16:03:12.143Z,1.27
2017-07-04T16:05:39.667Z,1.00
2017-07-04T16:08:07.137Z,1.10
2017-07-04T16:10:34.639Z,1.10
2017-07-04T16:13:03.107Z,0.90
2017-07-04T16:15:30.564Z,0.90
2017-07-04T16:17:58.040Z,1.20
2017-07-04T16:20:26.290Z,1.00
2017-07-04T16:22:53.763Z,0.90
2017-07-04T16:25:21.301Z,1.07
2017-07-04T16:27:48.753Z,1.03
2017-07-04T16:30:16.368Z,0.90
2017-07-04T16:32:43.781Z,1.00
2017-07-04T16:35:11.333Z,0.80
2017-07-04T16:37:38.885Z,1.07
2017-07-04T16:40:06.446Z,1.07
2017-07-04T16:42:33.916Z,1.07
2017-07-04T16:45:01.471Z,1.20
2017-07-04T16:47:29.031Z,1.30
2017-07-04T16:49:56.579Z,1.37
2017-07-04T16:52:24.042Z,1.00
2017-07-04T16:54:51.513Z,1.20
2017-07-04T16:57:19.791Z,1.10
2017-07-04T16:59:48.022Z,1.00
2017-07-04T17:02:15.485Z,1.20
2017-07-04T17:04:42.937Z,1.40
2017-07-04T17:07:10.430Z,1.10
2017-07-04T17:09:38.142Z,1.50
2017-07-04T17:12:05.597Z,0.90
2017-07-04T17:14:33.097Z,0.80
2017-07-04T17:17:00.653Z,1.67
2017-07-04T17:19:28.208Z,0.70
2017-07-04T17:21:55.660Z,0.93
2017-07-04T17:24:23.231Z,0.90
2017-07-04T17:26:50.689Z,1.00
2017-07-04T17:29:18.151Z,1.83
2017-07-04T17:31:45.693Z,1.10
2017-07-04T17:34:13.162Z,1.40
2017-07-04T17:36:40.627Z,1.00
2017-07-04T17:39:08.884Z,1.13
2017-07-04T17:41:36.453Z,0.93
2017-07-04T17:44:04.011Z,0.90
2017-07-04T17:46:31.561Z,0.90
2017-07-04T17:48:59.135Z,1.37
2017-07-04T17:51:26.590Z,0.80
2017-07-04T17:53:54.148Z,1.10
2017-07-04T17:56:21.621Z,1.20
2017-07-04T17:58:49.840Z,1.13
2017-07-04T18:01:17.299Z,1.37
2017-07-04T18:03:44.788Z,1.40
2017-07-04T18:06:12.355Z,1.20
2017-07-04T18:08:39.893Z,1.00
2017-07-04T18:11:07.357Z,1.37
2017-07-04T18:13:34.846Z,1.17
2017-07-04T18:16:02.388Z,1.30
2017-07-04T18:18:30.654Z,1.40
2017-07-04T18:20:58.219Z,1.10
2017-07-04T18:23:25.774Z,1.03
2017-07-04T18:25:53.233Z,1.03
2017-07-04T18:28:20.694Z,1.03
2017-07-04T18:30:48.943Z,1.40
2017-07-04T18:33:16.420Z,1.57
2017-07-04T18:35:43.966Z,0.80
2017-07-04T18:38:11.523Z,1.03
2017-07-04T18:40:38.986Z,1.20
2017-07-04T18:43:06.445Z,1.10
2017-07-04T18:45:34.015Z,0.90
2017-07-04T18:48:02.277Z,1.27
2017-07-04T18:50:29.822Z,0.97
2017-07-04T18:52:57.393Z,0.80
2017-07-04T18:55:24.953Z,1.00
2017-07-04T18:57:52.517Z,1.50
2017-07-04T19:00:20.071Z,1.10
2017-07-04T19:02:47.538Z,1.10
2017-07-04T19:05:15.812Z,1.10
2017-07-04T19:07:43.286Z,1.20
2017-07-04T19:10:11.519Z,1.03
2017-07-04T19:12:39.094Z,1.20
2017-07-04T19:15:06.649Z,1.60
2017-07-04T19:17:34.120Z,1.33
2017-07-04T19:20:01.665Z,1.33
2017-07-04T19:22:29.221Z,1.27
2017-07-04T19:24:56.786Z,1.10
2017-07-04T19:27:24.344Z,1.23
2017-07-04T19:29:51.910Z,1.27
2017-07-04T19:32:19.471Z,1.77
2017-07-04T19:34:46.934Z,1.37
2017-07-04T19:37:15.355Z,1.57
2017-07-04T19:39:42.849Z,1.63
2017-07-04T19:42:10.344Z,1.20
2017-07-04T19:44:37.798Z,1.87
2017-07-04T19:47:05.267Z,1.67
2017-07-04T19:49:32.747Z,1.40
2017-07-04T19:52:00.269Z,1.23
2017-07-04T19:54:27.733Z,2.40
2017-07-04T19:56:55.253Z,1.40
2017-07-04T19:59:22.801Z,1.50
2017-07-04T20:01:50.253Z,2.00
2017-07-04T20:04:17.723Z,1.53
2017-07-04T20:06:45.281Z,1.23
2017-07-04T20:09:12.841Z,1.63
2017-07-04T20:11:40.306Z,1.57
2017-07-04T20:14:07.770Z,2.00
2017-07-04T20:16:36.040Z,1.90
2017-07-04T20:19:03.492Z,1.70
2017-07-04T20:21:32.440Z,1.70
2017-07-04T20:24:00.297Z,1.60
2017-07-04T20:26:27.882Z,1.40
2017-07-04T20:28:55.360Z,1.30
2017-07-04T20:31:22.914Z,1.63
2017-07-04T20:33:50.392Z,1.50
2017-07-04T20:36:18.719Z,1.40
2017-07-04T20:38:46.209Z,1.43
2017-07-04T20:41:13.719Z,1.20
2017-07-04T20:43:41.175Z,1.70
2017-07-04T20:46:08.634Z,1.93
2017-07-04T20:48:36.125Z,1.80
2017-07-04T20:51:03.603Z,1.43
2017-07-04T20:53:31.150Z,2.00
2017-07-04T20:55:58.607Z,1.97
2017-07-04T20:58:26.087Z,1.70
2017-07-04T21:00:54.342Z,1.53
2017-07-04T21:03:21.817Z,2.47
2017-07-04T21:05:50.117Z,1.83
2017-07-04T21:08:17.589Z,1.70
2017-07-04T21:10:45.068Z,1.40
2017-07-04T21:13:12.528Z,1.80
2017-07-04T21:15:40.022Z,1.70
2017-07-04T21:18:07.457Z,1.50
2017-07-04T21:20:35.016Z,1.33
2017-07-04T21:23:03.502Z,1.50
2017-07-04T21:25:31.050Z,1.83
2017-07-04T21:27:58.515Z,1.90
2017-07-04T21:30:25.989Z,1.37
2017-07-04T21:32:54.218Z,1.67
2017-07-04T21:35:21.726Z,1.37
2017-07-04T21:37:50.030Z,1.60
2017-07-04T21:40:17.534Z,1.90
2017-07-04T21:42:45.086Z,1.80
2017-07-04T21:45:12.544Z,1.70
2017-07-04T21:47:40.063Z,1.50
2017-07-04T21:50:07.559Z,1.63
2017-07-04T21:52:35.113Z,1.70
2017-07-04T21:55:02.565Z,1.60
2017-07-04T21:57:30.034Z,1.43
2017-07-04T21:59:57.580Z,1.53
2017-07-04T22:02:25.036Z,2.40
2017-07-04T22:04:52.601Z,2.20
2017-07-04T22:07:20.056Z,1.57
2017-07-04T22:09:47.534Z,1.27
2017-07-04T22:12:14.990Z,1.53
2017-07-04T22:14:43.228Z,1.37
2017-07-04T22:17:10.697Z,1.60
2017-07-04T22:19:38.261Z,1.43
2017-07-04T22:22:05.827Z,1.50
2017-07-04T22:24:33.390Z,1.67
2017-07-04T22:27:00.942Z,1.40
2017-07-04T22:29:28.512Z,1.53
2017-07-04T22:31:56.057Z,1.00
2017-07-04T22:34:23.525Z,1.37
2017-07-04T22:36:51.082Z,1.83
2017-07-04T22:39:18.626Z,1.73
2017-07-04T22:41:46.190Z,1.93
2017-07-04T22:44:13.809Z,2.00
2017-07-04T22:46:41.310Z,2.00
2017-07-04T22:49:08.925Z,2.30
2017-07-04T22:51:36.436Z,1.70
2017-07-04T22:54:03.907Z,2.07
2017-07-04T22:56:32.172Z,1.87
2017-07-04T22:59:00.429Z,1.43
2017-07-04T23:01:27.895Z,2.03
2017-07-04T23:03:55.362Z,1.60
2017-07-04T23:06:23.632Z,1.87
2017-07-04T23:08:51.186Z,1.70
2017-07-04T23:11:18.734Z,2.27
2017-07-04T23:13:46.194Z,2.00
2017-07-04T23:16:13.765Z,2.00
2017-07-04T23:18:42.034Z,2.10
2017-07-04T23:21:09.482Z,2.40
2017-07-04T23:23:37.048Z,1.80
2017-07-04T23:26:04.493Z,2.00
2017-07-04T23:28:32.084Z,1.53
2017-07-04T23:31:00.338Z,1.80
2017-07-04T23:33:27.885Z,3.03
2017-07-04T23:35:55.453Z,2.00
2017-07-04T23:38:23.014Z,2.33
2017-07-04T23:40:50.485Z,2.00
2017-07-04T23:43:18.718Z,2.13
2017-07-04T23:45:46.172Z,2.00
2017-07-04T23:48:13.757Z,1.97
2017-07-04T23:50:41.322Z,2.03
2017-07-04T23:53:08.778Z,2.00
2017-07-04T23:55:36.252Z,2.00
2017-07-04T23:58:04.506Z,2.40
